Time;durP1;ratioP1;P1;durP2;ratioP2;P2;SDS_P1;SDS_P2;PMS_P1;PMS_P2;Temp;Humidity;BMP_temperature;BMP_pressure;BME280_temperature;BME280_humidity;BME280_pressure;Samples;Min_cycle;Max_cycle;Signal;HPM_P1;HPM_P2
2022/12/09 00:01:16;;;;;;;13.05;10.28;;;;;;;10.82;85.04;101643.27;1768434;80;21105;-59
2022/12/09 00:03:43;;;;;;;11.30;10.10;;;;;;;10.82;85.04;101644.56;1769792;80;21506;-59
2022/12/09 00:06:14;;;;;;;10.38;9.28;;;;;;;10.81;84.66;101642.39;1762798;80;21026;-59
2022/12/09 00:08:41;;;;;;;10.82;9.68;;;;;;;10.81;84.38;101650.63;1723639;81;20998;-59
2022/12/09 00:11:08;;;;;;;11.93;10.43;;;;;;;10.80;84.21;101643.25;1720528;83;21026;-59
2022/12/09 00:13:35;;;;;;;10.95;9.68;;;;;;;10.86;83.42;101644.50;1734608;82;21074;-59
2022/12/09 00:16:09;;;;;;;14.33;10.32;;;;;;;10.81;83.33;101646.30;1714563;81;21504;-59
2022/12/09 00:18:36;;;;;;;11.38;10.10;;;;;;;10.76;83.35;101636.34;1618627;87;21043;-59
2022/12/09 00:21:26;;;;;;;12.93;10.18;;;;;;;10.74;83.07;101636.80;1622305;87;21176;-59
2022/12/09 00:23:53;;;;;;;11.97;10.65;;;;;;;10.73;82.82;101640.72;1575507;89;21082;-59
2022/12/09 00:26:21;;;;;;;11.40;10.03;;;;;;;10.69;82.46;101631.22;1584957;89;21585;-59
2022/12/09 00:28:48;;;;;;;12.73;10.50;;;;;;;10.67;82.40;101626.03;1584108;89;21044;-59
2022/12/09 00:31:25;;;;;;;10.72;9.23;;;;;;;10.65;82.26;101619.52;1576668;89;21119;-59
2022/12/09 00:33:54;;;;;;;12.45;10.18;;;;;;;10.66;81.92;101620.38;1580816;89;21145;-59
2022/12/09 00:36:21;;;;;;;17.02;13.40;;;;;;;10.64;81.69;101620.84;1575364;89;21141;-59
2022/12/09 00:38:48;;;;;;;14.05;12.10;;;;;;;10.61;81.34;101616.97;1582276;89;21070;-59
2022/12/09 00:41:15;;;;;;;14.83;13.20;;;;;;;10.59;81.22;101620.86;1584171;89;21053;-59
2022/12/09 00:43:43;;;;;;;15.30;12.55;;;;;;;10.59;81.22;101622.16;1581221;89;21107;-59
2022/12/09 00:46:11;;;;;;;18.27;13.70;;;;;;;10.60;81.18;101617.83;1571158;89;21704;-59
2022/12/09 00:48:37;;;;;;;18.05;14.05;;;;;;;10.62;81.11;101615.65;1576401;89;21148;-59
2022/12/09 00:51:06;;;;;;;17.17;13.25;;;;;;;10.64;80.90;101610.42;1575769;89;21050;-59
2022/12/09 00:53:33;;;;;;;18.35;13.98;;;;;;;10.65;80.82;101604.36;1569563;89;21080;-59
2022/12/09 00:56:00;;;;;;;14.50;12.70;;;;;;;10.68;80.73;101601.70;1574976;89;21729;-60
2022/12/09 00:58:26;;;;;;;17.52;14.95;;;;;;;10.69;80.59;101604.75;1574953;89;21067;-59
2022/12/09 01:00:53;;;;;;;18.20;14.13;;;;;;;10.69;80.33;101606.05;1590145;89;21637;-59
2022/12/09 01:03:19;;;;;;;17.98;14.30;;;;;;;10.70;80.25;101602.56;1577100;89;21079;-59
2022/12/09 01:05:46;;;;;;;18.92;15.05;;;;;;;10.71;80.11;101600.83;1582198;89;21140;-59
2022/12/09 01:08:13;;;;;;;16.73;13.40;;;;;;;10.72;80.03;101599.50;1590902;88;21137;-59
2022/12/09 01:10:41;;;;;;;17.27;13.58;;;;;;;10.73;80.01;101590.83;1603029;89;21137;-59
2022/12/09 01:13:09;;;;;;;22.10;14.15;;;;;;;10.75;79.99;101587.78;1593925;89;21121;-59
2022/12/09 01:15:36;;;;;;;22.77;16.65;;;;;;;10.77;79.79;101581.25;1617804;86;21079;-60
2022/12/09 01:18:04;;;;;;;35.98;21.55;;;;;;;10.79;79.72;101584.27;1643608;86;21066;-59
2022/12/09 01:20:31;;;;;;;33.63;22.65;;;;;;;10.80;79.44;101587.28;1708474;80;21030;-59
2022/12/09 01:22:59;;;;;;;40.25;25.08;;;;;;;10.81;79.45;101576.00;1766220;80;20995;-59
2022/12/09 01:25:26;;;;;;;31.95;21.42;;;;;;;10.81;79.35;101574.70;1774236;80;21464;-59
2022/12/09 01:27:52;;;;;;;23.35;16.40;;;;;;;10.97;78.61;101567.16;1757953;80;21019;-59
2022/12/09 01:30:19;;;;;;;19.00;14.85;;;;;;;11.05;77.89;101558.81;1761917;80;21520;-59
2022/12/09 01:32:46;;;;;;;17.77;13.75;;;;;;;11.10;77.45;101554.44;1762337;80;21041;-59
2022/12/09 01:35:13;;;;;;;18.82;14.03;;;;;;;11.09;77.23;101546.61;1771693;80;21480;-59
2022/12/09 01:37:40;;;;;;;19.15;14.63;;;;;;;10.94;77.81;101546.34;1771439;80;21038;-59
2022/12/09 01:40:14;;;;;;;19.98;14.35;;;;;;;10.87;77.71;101529.08;1760508;80;20987;-59
2022/12/09 01:42:40;;;;;;;17.62;13.32;;;;;;;10.79;78.01;101528.30;1771792;80;21525;-59
2022/12/09 01:45:30;;;;;;;20.32;14.85;;;;;;;10.87;77.75;101525.60;1760111;80;21035;-59
2022/12/09 01:48:09;;;;;;;22.10;14.50;;;;;;;10.80;78.16;101528.70;1758804;80;21051;-59
2022/12/09 01:50:37;;;;;;;19.10;14.90;;;;;;;10.74;78.36;101528.77;1739971;80;21039;-59
2022/12/09 01:53:05;;;;;;;22.62;15.32;;;;;;;10.73;78.50;101525.76;1756988;81;21030;-59
2022/12/09 01:55:32;;;;;;;19.52;14.68;;;;;;;10.75;78.47;101524.00;1753304;80;21086;-59
2022/12/09 01:57:59;;;;;;;18.87;14.83;;;;;;;10.80;78.19;101526.09;1744325;80;21459;-60
2022/12/09 02:00:26;;;;;;;15.85;14.05;;;;;;;10.77;78.20;101528.75;1762099;80;21025;-60
2022/12/09 02:02:52;;;;;;;24.75;15.68;;;;;;;10.76;78.12;101523.57;1765907;80;21021;-59
2022/12/09 02:05:19;;;;;;;17.92;13.90;;;;;;;10.75;78.18;101524.00;1750844;80;21013;-59
2022/12/09 02:07:47;;;;;;;21.50;14.83;;;;;;;10.76;78.11;101523.11;1761738;80;21042;-59
2022/12/09 02:10:15;;;;;;;20.62;14.00;;;;;;;10.74;78.01;101524.86;1766650;80;20998;-59
2022/12/09 02:13:04;;;;;;;19.20;14.25;;;;;;;10.72;77.98;101524.02;1762187;79;21045;-59
2022/12/09 02:15:51;;;;;;;20.37;14.55;;;;;;;10.72;77.88;101518.81;1748557;80;21050;-59
2022/12/09 02:18:26;;;;;;;20.50;14.10;;;;;;;10.71;77.71;101522.31;1739431;82;21074;-59
2022/12/09 02:21:21;;;;;;;19.27;13.90;;;;;;;10.69;77.80;101524.06;1748639;81;21081;-59
2022/12/09 02:24:16;;;;;;;20.30;14.18;;;;;;;10.68;77.81;101517.12;1628084;87;21040;-59
2022/12/09 02:26:54;;;;;;;19.37;14.25;;;;;;;10.67;77.81;101515.41;1684676;84;21018;-59
2022/12/09 02:29:29;;;;;;;21.97;14.83;;;;;;;10.68;77.91;101508.44;1649981;86;21070;-59
2022/12/09 02:32:17;;;;;;;19.70;14.70;;;;;;;10.67;77.86;101508.03;1666510;86;21517;-59
2022/12/09 02:34:57;;;;;;;22.55;15.43;;;;;;;10.62;77.58;101502.87;1620762;86;21042;-60
2022/12/09 02:37:29;;;;;;;30.50;16.73;;;;;;;10.59;77.69;101505.52;1659761;85;21057;-60
2022/12/09 02:40:06;;;;;;;25.55;16.65;;;;;;;10.57;77.72;101499.00;1591228;90;21105;-59
2022/12/09 02:42:35;;;;;;;22.55;15.43;;;;;;;10.58;77.70;101494.67;1493274;95;21607;-59
2022/12/09 02:45:05;;;;;;;22.85;15.60;;;;;;;10.57;77.72;101490.36;1476147;97;21158;-59
2022/12/09 02:47:35;;;;;;;23.38;16.32;;;;;;;10.55;77.82;101490.35;1475945;97;21525;-59
2022/12/09 02:50:06;;;;;;;23.67;15.83;;;;;;;10.54;77.73;101486.04;1475726;97;21097;-59
2022/12/09 02:52:32;;;;;;;23.17;17.07;;;;;;;10.51;77.67;101485.19;1468475;97;21629;-59
2022/12/09 02:55:00;;;;;;;23.25;16.37;;;;;;;10.51;77.70;101482.58;1476796;95;21118;-59
2022/12/09 02:57:28;;;;;;;22.85;16.48;;;;;;;10.50;77.83;101489.55;1495054;94;21171;-59
2022/12/09 02:59:55;;;;;;;25.90;17.30;;;;;;;10.51;77.79;101485.19;1482036;96;21155;-59
2022/12/09 03:02:30;;;;;;;26.40;16.50;;;;;;;10.49;77.86;101480.44;1484558;96;21118;-59
2022/12/09 03:05:39;;;;;;;26.35;16.97;;;;;;;10.49;78.03;101477.41;1470610;96;21122;-60
2022/12/09 03:08:43;;;;;;;23.55;16.87;;;;;;;10.51;78.19;101479.98;1456956;97;21662;-59
2022/12/09 03:11:15;;;;;;;26.97;17.65;;;;;;;10.52;78.23;101477.81;1431294;100;21161;-59
2022/12/09 03:13:52;;;;;;;35.60;20.85;;;;;;;10.52;78.13;101475.22;1461003;98;21255;-59
2022/12/09 03:16:36;;;;;;;32.88;20.52;;;;;;;10.51;78.18;101469.57;1460463;97;21202;-59
2022/12/09 03:19:38;;;;;;;31.30;19.37;;;;;;;10.49;78.27;101472.20;1463378;98;21136;-59
2022/12/09 03:22:08;;;;;;;34.70;20.77;;;;;;;10.52;78.36;101464.81;1453876;96;21106;-59
2022/12/09 03:24:56;;;;;;;37.28;20.70;;;;;;;10.57;78.32;101459.97;1456063;97;21121;-59
2022/12/09 03:27:27;;;;;;;35.03;21.12;;;;;;;10.66;78.19;101453.80;1450616;97;21227;-59
2022/12/09 03:29:53;;;;;;;28.23;20.10;;;;;;;10.65;78.16;101454.70;1454882;98;21663;-59
2022/12/09 03:32:21;;;;;;;28.75;19.73;;;;;;;10.65;78.10;101452.94;1450639;98;21146;-59
2022/12/09 03:34:48;;;;;;;27.00;18.85;;;;;;;10.62;78.25;101453.42;1457865;98;21090;-59
2022/12/09 03:37:16;;;;;;;25.43;16.77;;;;;;;10.61;78.33;101448.64;1487285;95;21081;-59
2022/12/09 03:39:42;;;;;;;22.98;15.88;;;;;;;10.62;78.38;101445.61;1550461;90;21080;-59
2022/12/09 03:42:23;;;;;;;21.42;16.37;;;;;;;10.63;78.22;101444.28;1604147;87;21614;-59
2022/12/09 03:44:55;;;;;;;25.52;16.27;;;;;;;10.66;77.97;101447.30;1561355;91;21105;-59
2022/12/09 03:47:21;;;;;;;23.80;16.12;;;;;;;10.59;78.27;101444.36;1513475;94;21113;-60
2022/12/09 03:49:48;;;;;;;24.18;16.40;;;;;;;10.53;78.28;101440.52;1517664;94;21113;-59
2022/12/09 03:52:31;;;;;;;18.48;14.20;;;;;;;10.52;78.47;101441.39;1511805;94;21162;-59
2022/12/09 03:55:02;;;;;;;20.27;14.45;;;;;;;10.54;78.43;101438.33;1498127;95;21609;-59
2022/12/09 03:57:29;;;;;;;23.42;15.68;;;;;;;10.57;78.31;101435.70;1499476;95;21114;-59
2022/12/09 03:59:58;;;;;;;20.57;15.08;;;;;;;10.57;78.36;101431.34;1515126;94;21094;-59
2022/12/09 04:02:25;;;;;;;21.12;15.05;;;;;;;10.58;78.46;101434.81;1519753;93;21143;-59
2022/12/09 04:04:52;;;;;;;23.35;15.28;;;;;;;10.58;78.44;101425.27;1506375;94;21121;-59
2022/12/09 04:07:18;;;;;;;19.17;14.85;;;;;;;10.59;78.57;101425.68;1486311;95;21531;-60
2022/12/09 04:09:45;;;;;;;22.22;14.83;;;;;;;10.61;78.63;101426.98;1493887;95;21157;-59
2022/12/09 13:05:55;;;;;;;29.67;23.83;;;;;;;10.42;89.96;101441.94;1772321;80;21042;-60
2022/12/09 13:08:34;;;;;;;24.45;21.73;;;;;;;10.65;87.16;101444.29;1761396;80;21030;-59
2022/12/09 13:11:15;;;;;;;24.25;21.05;;;;;;;10.80;86.01;101444.09;1761068;80;21022;-59
2022/12/09 13:13:47;;;;;;;32.42;22.02;;;;;;;10.90;85.43;101444.41;1684556;83;21060;-58
2022/12/09 13:16:37;;;;;;;25.92;19.35;;;;;;;10.99;85.00;101432.59;1698849;83;21544;-58
2022/12/09 13:19:20;;;;;;;31.75;21.68;;;;;;;11.09;84.63;101437.22;1682657;83;21585;-59
2022/12/09 13:21:47;;;;;;;38.35;24.98;;;;;;;11.20;84.06;101442.73;1703886;84;21062;-59
2022/12/09 13:24:37;;;;;;;49.45;29.95;;;;;;;11.28;83.59;101439.58;1686738;83;21067;-59
2022/12/09 13:27:27;;;;;;;51.77;31.17;;;;;;;11.34;82.94;101438.19;1697111;83;21053;-58
2022/12/09 13:30:15;;;;;;;61.90;35.83;;;;;;;11.44;82.18;101444.99;1697733;83;21052;-58
2022/12/09 13:33:11;;;;;;;31.73;23.38;;;;;;;11.51;81.63;101440.99;1698470;83;21068;-59
2022/12/09 13:35:44;;;;;;;23.20;18.77;;;;;;;11.58;81.00;101446.55;1685175;83;21041;-59
2022/12/09 13:38:39;;;;;;;18.70;16.40;;;;;;;11.61;80.54;101450.39;1670361;83;21083;-59
2022/12/09 13:42:51;;;;;;;19.25;16.73;;;;;;;11.67;79.66;101456.84;1674153;83;21017;-58
2022/12/09 13:44:10;;;;;;;21.30;17.23;;;;;;;11.72;78.81;101458.96;1681648;83;21148;-59
2022/12/09 13:46:36;;;;;;;18.42;15.93;;;;;;;11.76;78.17;101464.55;1683679;83;21108;-59
2022/12/09 13:49:25;;;;;;;18.05;15.98;;;;;;;11.77;77.63;101476.68;1680731;83;21615;-59
2022/12/09 13:51:53;;;;;;;18.07;16.23;;;;;;;11.80;77.24;101474.05;1634125;86;21066;-59
2022/12/09 13:54:24;;;;;;;17.45;15.53;;;;;;;11.84;76.66;101478.33;1655258;86;21100;-58
2022/12/09 13:57:18;;;;;;;19.10;17.05;;;;;;;11.85;76.38;101480.06;1607999;87;21128;-59
2022/12/09 13:59:50;;;;;;;19.32;16.90;;;;;;;11.86;76.03;101480.47;1580990;89;21129;-59
2022/12/09 14:02:51;;;;;;;19.05;17.05;;;;;;;11.87;75.81;101484.81;1498707;94;21536;-59
2022/12/09 14:05:20;;;;;;;19.65;16.67;;;;;;;11.91;75.46;101479.97;1485167;95;21088;-59
2022/12/09 14:08:00;;;;;;;20.27;17.87;;;;;;;11.84;75.43;101476.59;1529791;92;21137;-59
2022/12/09 14:10:42;;;;;;;20.23;17.80;;;;;;;11.92;74.80;101472.11;1549034;92;21156;-59
2022/12/09 14:13:31;;;;;;;20.65;17.57;;;;;;;11.95;74.36;101476.42;1549098;92;21085;-59
2022/12/09 14:16:19;;;;;;;20.75;16.95;;;;;;;11.95;74.01;101476.42;1546868;92;21597;-59
2022/12/09 14:18:46;;;;;;;21.07;17.25;;;;;;;11.93;73.59;101480.33;1506855;95;21127;-59
2022/12/09 14:21:25;;;;;;;18.02;16.10;;;;;;;11.92;73.30;101489.50;1506007;94;21566;-59
2022/12/09 14:24:15;;;;;;;20.37;16.67;;;;;;;11.91;73.19;101482.58;1504815;94;21670;-59
2022/12/09 14:27:00;;;;;;;22.17;18.12;;;;;;;11.90;72.83;101483.01;1506322;95;21102;-59
2022/12/09 14:29:49;;;;;;;21.05;17.57;;;;;;;11.90;72.72;101483.44;1516098;93;21696;-59
2022/12/09 14:32:24;;;;;;;20.23;17.95;;;;;;;11.91;72.45;101477.36;1507219;93;21071;-59
2022/12/09 14:35:05;;;;;;;20.25;18.00;;;;;;;11.92;72.31;101479.94;1503070;93;21110;-59
2022/12/09 14:37:55;;;;;;;21.02;17.92;;;;;;;11.89;72.34;101489.56;1456561;97;21673;-59
2022/12/09 14:40:55;;;;;;;19.85;17.70;;;;;;;11.87;72.22;101488.72;1445307;97;21109;-59
2022/12/09 14:43:52;;;;;;;22.00;18.12;;;;;;;11.87;72.12;101499.16;1451335;97;21213;-59
2022/12/09 14:46:36;;;;;;;19.95;17.30;;;;;;;11.86;71.86;101485.68;1439264;98;21117;-59
2022/12/09 14:49:20;;;;;;;22.07;18.27;;;;;;;11.84;71.62;101483.54;1449833;98;21221;-59
2022/12/09 14:51:57;;;;;;;21.80;19.02;;;;;;;11.80;71.46;101484.04;1439147;98;21178;-59
2022/12/09 14:54:31;;;;;;;22.82;19.77;;;;;;;11.79;71.38;101485.34;1455716;96;21200;-59
2022/12/09 14:57:01;;;;;;;20.55;18.35;;;;;;;11.77;71.26;101491.02;1418360;98;21197;-59
2022/12/09 14:59:30;;;;;;;23.22;20.37;;;;;;;11.75;71.17;101491.48;1422688;98;21141;-59
2022/12/09 15:02:09;;;;;;;25.55;20.55;;;;;;;11.74;70.96;101489.78;1471610;95;21151;-59
2022/12/09 15:04:42;;;;;;;28.47;22.85;;;;;;;11.70;71.00;101485.50;1475115;95;21180;-59
2022/12/09 15:07:23;;;;;;;30.45;25.32;;;;;;;11.69;70.92;101482.45;1542072;90;21113;-59
2022/12/09 15:09:58;;;;;;;31.13;25.77;;;;;;;11.67;70.90;101494.66;1565995;90;21040;-59
2022/12/09 15:12:35;;;;;;;30.12;24.92;;;;;;;11.66;70.78;101492.91;1526101;93;21097;-59
2022/12/09 15:15:12;;;;;;;27.07;21.80;;;;;;;11.64;70.75;101490.77;1525864;93;21104;-59
2022/12/09 15:17:52;;;;;;;24.60;20.40;;;;;;;11.62;70.73;101497.75;1535553;93;21643;-59
2022/12/09 15:20:26;;;;;;;24.57;21.52;;;;;;;11.60;70.67;101495.61;1533217;93;21121;-60
2022/12/09 15:23:00;;;;;;;30.00;24.05;;;;;;;11.58;70.54;101490.86;1534849;93;21106;-59
2022/12/09 15:25:26;;;;;;;29.80;24.90;;;;;;;11.56;70.54;101501.75;1497826;95;21128;-59
2022/12/09 15:28:05;;;;;;;28.00;23.95;;;;;;;11.55;70.48;101502.61;1498585;95;21116;-59
2022/12/09 15:30:35;;;;;;;29.27;23.40;;;;;;;11.54;70.38;101493.09;1487294;95;21131;-59
2022/12/09 15:33:03;;;;;;;28.32;24.57;;;;;;;11.52;70.31;101488.34;1507588;94;21624;-59
2022/12/09 15:35:32;;;;;;;29.27;24.90;;;;;;;11.55;70.09;101488.28;1509390;94;21162;-60
2022/12/09 15:38:03;;;;;;;34.88;28.83;;;;;;;11.66;69.47;101490.30;1509767;94;21089;-59
2022/12/09 15:40:30;;;;;;;35.70;27.42;;;;;;;11.64;69.40;101493.38;1510006;94;21191;-59
2022/12/09 15:43:02;;;;;;;40.20;33.15;;;;;;;11.63;69.31;101500.77;1507660;94;21073;-59
2022/12/09 15:45:31;;;;;;;;;;;;;;;11.61;69.13;101498.62;1510612;94;21066;-59
2022/12/09 15:48:12;;;;;;;42.35;31.57;;;;;;;11.58;69.01;101505.20;1536747;92;20120;-59
2022/12/09 15:50:44;;;;;;;30.90;25.10;;;;;;;11.54;69.01;101501.74;1595812;88;21101;-59
2022/12/09 15:53:21;;;;;;;27.15;23.45;;;;;;;11.51;68.90;101502.23;1622290;87;21617;-60
2022/12/09 15:56:14;;;;;;;24.12;20.12;;;;;;;11.46;68.82;101500.56;1544577;91;21188;-59
2022/12/09 15:58:46;;;;;;;23.45;19.17;;;;;;;11.43;68.69;101493.23;1551880;92;21056;-59
2022/12/09 16:01:28;;;;;;;23.45;20.08;;;;;;;11.36;68.84;101489.84;1510937;93;21123;-59
2022/12/09 16:03:57;;;;;;;27.58;20.92;;;;;;;11.32;68.94;101488.16;1487362;96;21053;-59
2022/12/09 16:06:30;;;;;;;22.40;20.00;;;;;;;11.30;69.02;101491.23;1540995;92;21183;-59
2022/12/09 16:08:57;;;;;;;24.82;18.82;;;;;;;11.30;69.05;101499.47;1526577;92;21084;-59
2022/12/09 16:11:44;;;;;;;24.57;19.65;;;;;;;11.27;68.95;101499.06;1539856;92;21633;-60
2022/12/09 16:14:12;;;;;;;24.85;19.87;;;;;;;11.27;68.69;101504.28;1533245;92;21136;-59
2022/12/09 16:17:01;;;;;;;23.38;19.42;;;;;;;11.23;68.60;101494.78;1535192;92;21107;-59
2022/12/09 16:19:35;;;;;;;22.75;19.17;;;;;;;11.20;68.47;101492.23;1543715;92;21083;-60
2022/12/09 16:22:11;;;;;;;24.10;18.67;;;;;;;11.16;68.48;101497.48;1551503;92;21607;-59
2022/12/09 16:24:45;;;;;;;24.55;20.43;;;;;;;11.12;68.27;101507.09;1544675;91;22722;-59
